Time;durP1;ratioP1;P1;durP2;ratioP2;P2;SDS_P1;SDS_P2;PMS_P1;PMS_P2;Temp;Humidity;BMP_temperature;BMP_pressure;BME280_temperature;BME280_humidity;BME280_pressure;Samples;Min_cycle;Max_cycle;Signal;HPM_P1;HPM_P2
2023/01/27 00:00:57;;;;;;;74.07;15.60;;;4.00;99.90;;;;;;5060750;28;20382;-85
2023/01/27 00:03:23;;;;;;;74.05;16.95;;;4.10;99.90;;;;;;5059140;28;20045;-82
2023/01/27 00:05:49;;;;;;;98.57;25.88;;;4.10;99.90;;;;;;5056079;28;20155;-83
2023/01/27 00:08:15;;;;;;;75.15;18.23;;;4.10;99.90;;;;;;5055953;28;20065;-85
2023/01/27 00:10:41;;;;;;;110.55;30.08;;;4.10;99.90;;;;;;5088670;28;20057;-81
2023/01/27 00:13:26;;;;;;;75.10;16.38;;;4.00;99.90;;;;;;5055626;28;20071;-86
2023/01/27 00:15:51;;;;;;;85.78;18.75;;;4.10;99.90;;;;;;5056172;28;20057;-85
2023/01/27 00:18:17;;;;;;;90.18;19.33;;;4.20;99.90;;;;;;5059869;28;20047;-80
2023/01/27 00:26:14;;;;;;;85.07;20.08;;;4.20;99.90;;;;;;5058148;28;20440;-84
2023/01/27 00:28:41;;;;;;;79.65;19.58;;;4.30;99.90;;;;;;5059461;28;20037;-81
2023/01/27 00:33:55;;;;;;;77.25;17.67;;;4.30;99.90;;;;;;5091728;28;20049;-85
2023/01/27 00:36:21;;;;;;;93.97;23.00;;;4.20;99.90;;;;;;5060581;28;20131;-85
2023/01/27 00:38:47;;;;;;;73.23;18.57;;;4.20;99.90;;;;;;5057320;28;20048;-83
2023/01/27 00:41:20;;;;;;;83.88;19.17;;;4.40;99.90;;;;;;5062410;28;20082;-80
2023/01/27 00:43:51;;;;;;;62.28;15.30;;;4.20;99.90;;;;;;5045695;28;20373;-85
2023/01/27 00:46:18;;;;;;;62.72;15.07;;;4.20;99.90;;;;;;5066431;28;20049;-84
2023/01/27 00:48:44;;;;;;;72.55;18.63;;;4.20;99.90;;;;;;5070075;28;20041;-85
2023/01/27 00:51:11;;;;;;;87.70;25.35;;;4.10;99.90;;;;;;5065447;28;20032;-82
2023/01/27 00:53:37;;;;;;;61.10;13.95;;;4.10;99.90;;;;;;5062177;28;20067;-81
2023/01/27 00:56:03;;;;;;;72.93;16.33;;;4.10;99.90;;;;;;5059010;28;20128;-86
2023/01/27 00:58:29;;;;;;;67.05;18.17;;;4.20;99.90;;;;;;5059770;28;20049;-83
2023/01/27 01:01:00;;;;;;;72.67;17.30;;;4.20;99.90;;;;;;5063668;28;20122;-85
2023/01/27 01:03:30;;;;;;;57.92;14.77;;;4.20;99.90;;;;;;5061308;28;20315;-84
2023/01/27 01:05:57;;;;;;;77.20;18.27;;;4.20;99.90;;;;;;5091958;28;20087;-80
2023/01/27 01:08:23;;;;;;;61.80;16.13;;;4.30;99.90;;;;;;5039276;28;20458;-80
2023/01/27 01:10:49;;;;;;;60.38;15.10;;;4.20;99.90;;;;;;5062067;28;20060;-80
2023/01/27 01:13:15;;;;;;;63.78;15.10;;;4.20;99.90;;;;;;5041073;28;20051;-82
2023/01/27 01:15:40;;;;;;;60.13;14.80;;;4.20;99.90;;;;;;5058993;28;20049;-82
2023/01/27 01:18:08;;;;;;;65.95;15.98;;;4.30;99.90;;;;;;5060567;28;20049;-84
2023/01/27 01:20:39;;;;;;;62.65;16.05;;;4.30;99.90;;;;;;5060348;28;20091;-84
2023/01/27 01:23:05;;;;;;;64.15;15.40;;;4.20;99.90;;;;;;5060670;28;20048;-85
2023/01/27 01:25:31;;;;;;;67.10;18.77;;;4.30;99.90;;;;;;5063670;28;20052;-82
2023/01/27 01:27:57;;;;;;;61.05;14.63;;;4.20;99.90;;;;;;5096403;28;20037;-82
2023/01/27 01:30:25;;;;;;;55.70;14.27;;;4.20;99.90;;;;;;5055618;28;20041;-84
2023/01/27 01:32:55;;;;;;;59.88;14.88;;;4.30;99.90;;;;;;5063310;28;20052;-80
2023/01/27 01:35:22;;;;;;;52.08;14.88;;;4.20;99.90;;;;;;5042313;28;20053;-84
2023/01/27 01:37:47;;;;;;;57.30;19.40;;;4.20;99.90;;;;;;5093102;28;20053;-81
2023/01/27 01:40:13;;;;;;;48.20;12.27;;;4.10;99.90;;;;;;5059251;28;20051;-81
2023/01/27 01:42:57;;;;;;;40.55;10.80;;;4.20;99.90;;;;;;5059197;28;20059;-83
2023/01/27 01:45:32;;;;;;;52.60;12.85;;;4.20;99.90;;;;;;5042821;28;20107;-83
2023/01/27 01:48:05;;;;;;;48.38;13.13;;;4.20;99.90;;;;;;5058924;28;20444;-83
2023/01/27 01:50:32;;;;;;;49.28;13.70;;;4.20;99.90;;;;;;5047850;28;20130;-82
2023/01/27 01:53:01;;;;;;;39.67;10.75;;;4.20;99.90;;;;;;5060541;28;20052;-85
2023/01/27 01:55:27;;;;;;;44.28;12.95;;;4.20;99.90;;;;;;5043287;28;20045;-83
2023/01/27 01:57:53;;;;;;;51.70;15.55;;;4.20;99.90;;;;;;5063853;28;20048;-82
2023/01/27 02:00:19;;;;;;;50.67;11.98;;;4.20;99.90;;;;;;5059912;28;20131;-83
2023/01/27 02:02:46;;;;;;;49.53;12.20;;;4.20;99.90;;;;;;5065013;28;20551;-84
2023/01/27 02:05:26;;;;;;;44.88;12.75;;;4.20;99.90;;;;;;5059775;28;20114;-86
2023/01/27 02:08:07;;;;;;;38.60;8.70;;;4.20;99.90;;;;;;5062913;28;20055;-84
2023/01/27 02:10:33;;;;;;;37.33;10.65;;;4.30;99.90;;;;;;5066943;28;20040;-82
2023/01/27 02:12:59;;;;;;;30.80;8.15;;;4.20;99.90;;;;;;5047476;28;20047;-84
2023/01/27 02:15:25;;;;;;;32.45;8.82;;;4.30;99.90;;;;;;5059608;28;20076;-83
2023/01/27 02:17:50;;;;;;;31.27;8.38;;;4.30;99.90;;;;;;5093189;28;20052;-82
2023/01/27 02:20:33;;;;;;;31.50;7.90;;;4.30;99.90;;;;;;5062777;28;20052;-85
2023/01/27 02:23:16;;;;;;;28.95;7.70;;;4.30;99.90;;;;;;5061421;28;20044;-82
2023/01/27 02:26:09;;;;;;;26.63;7.45;;;4.40;99.90;;;;;;5063904;28;20053;-86
2023/01/27 02:28:35;;;;;;;25.75;7.38;;;4.30;99.90;;;;;;5067178;28;20049;-84
2023/01/27 02:31:01;;;;;;;31.63;7.32;;;4.30;99.90;;;;;;5066534;28;20099;-84
2023/01/27 02:33:27;;;;;;;26.70;7.32;;;4.30;99.90;;;;;;5066482;28;20488;-84
2023/01/27 02:36:04;;;;;;;23.67;6.38;;;4.30;99.90;;;;;;5064283;28;20051;-86
2023/01/27 02:38:37;;;;;;;25.42;6.47;;;4.30;99.90;;;;;;5064019;28;20047;-84
2023/01/27 02:41:28;;;;;;;22.58;5.90;;;4.30;99.90;;;;;;5065125;28;20084;-83
2023/01/27 02:43:54;;;;;;;27.88;8.73;;;4.30;99.90;;;;;;5073430;28;20107;-83
2023/01/27 02:46:20;;;;;;;21.38;7.38;;;4.30;99.90;;;;;;5061541;28;20370;-84
2023/01/27 02:48:46;;;;;;;28.40;7.63;;;4.30;99.90;;;;;;5059279;28;20098;-86
2023/01/27 02:51:12;;;;;;;22.48;6.28;;;4.40;99.90;;;;;;5042832;28;20040;-81
2023/01/27 02:53:37;;;;;;;24.77;7.13;;;4.30;99.90;;;;;;5029285;28;20055;-79
2023/01/27 02:56:04;;;;;;;26.70;6.63;;;4.30;99.90;;;;;;5062720;28;20043;-82
2023/01/27 02:58:29;;;;;;;32.75;8.40;;;4.30;99.90;;;;;;5056035;28;20119;-85
2023/01/27 03:00:55;;;;;;;28.13;8.05;;;4.30;99.90;;;;;;5063751;28;20068;-85
2023/01/27 03:03:21;;;;;;;23.90;6.10;;;4.30;99.90;;;;;;5064223;28;20060;-82
2023/01/27 03:05:50;;;;;;;25.50;8.02;;;4.30;99.90;;;;;;5057360;28;20079;-84
2023/01/27 03:08:17;;;;;;;20.70;5.55;;;4.40;99.90;;;;;;5027016;28;20048;-78
2023/01/27 03:10:43;;;;;;;21.92;6.35;;;4.40;99.90;;;;;;5075284;28;20095;-86
2023/01/27 03:13:09;;;;;;;29.17;6.38;;;4.50;99.90;;;;;;5041283;28;20045;-86
2023/01/27 03:18:21;;;;;;;20.30;5.72;;;4.50;99.90;;;;;;5061695;28;20049;-84
2023/01/27 03:20:48;;;;;;;24.08;7.03;;;4.50;99.90;;;;;;5031185;28;20079;-86
2023/01/27 03:23:16;;;;;;;20.42;6.13;;;4.50;99.90;;;;;;5042614;28;20412;-84
2023/01/27 03:25:47;;;;;;;25.60;6.43;;;4.50;99.90;;;;;;5059237;28;20049;-83
2023/01/27 03:28:14;;;;;;;27.10;6.38;;;4.40;99.90;;;;;;5060480;28;20489;-85
2023/01/27 03:30:40;;;;;;;22.80;6.32;;;4.40;99.90;;;;;;5061757;28;20096;-86
2023/01/27 03:33:06;;;;;;;19.70;5.78;;;4.40;99.90;;;;;;5062905;28;20428;-84
2023/01/27 03:35:47;;;;;;;17.25;4.20;;;4.50;99.90;;;;;;5061377;28;20477;-81
2023/01/27 03:46:31;;;;;;;16.02;4.10;;;4.50;99.90;;;;;;5092730;28;20057;-80
2023/01/27 03:48:58;;;;;;;11.80;4.40;;;4.50;99.90;;;;;;5056397;28;20044;-82
2023/01/27 03:51:25;;;;;;;16.35;6.05;;;4.50;99.90;;;;;;5058427;28;20045;-83
2023/01/27 03:53:51;;;;;;;15.68;4.32;;;4.50;99.90;;;;;;5058537;28;20045;-83
2023/01/27 03:56:19;;;;;;;13.32;4.25;;;4.50;99.90;;;;;;5058332;28;20056;-81
2023/01/27 03:58:47;;;;;;;12.55;3.95;;;4.60;99.90;;;;;;5056178;28;20048;-83
2023/01/27 04:01:21;;;;;;;15.90;4.95;;;4.60;99.90;;;;;;5056188;28;20052;-84
2023/01/27 04:09:25;;;;;;;13.98;3.53;;;4.70;99.90;;;;;;5089434;28;20056;-85
2023/01/27 04:11:55;;;;;;;13.38;4.28;;;4.60;99.90;;;;;;5067715;28;20048;-84
2023/01/27 04:14:27;;;;;;;15.27;5.35;;;4.70;99.90;;;;;;5063999;28;20359;-84
2023/01/27 04:16:58;;;;;;;14.60;4.15;;;4.60;99.90;;;;;;5062303;28;20109;-78
2023/01/27 04:19:24;;;;;;;20.23;4.20;;;4.60;99.90;;;;;;5061936;28;20056;-84
2023/01/27 04:21:50;;;;;;;11.60;4.17;;;4.60;99.90;;;;;;5059050;28;20057;-80
2023/01/27 04:24:21;;;;;;;11.63;3.90;;;4.60;99.90;;;;;;5059346;28;20098;-85
2023/01/27 04:26:48;;;;;;;10.68;4.13;;;4.60;99.90;;;;;;5076570;28;20041;-82
2023/01/27 04:29:14;;;;;;;15.95;7.05;;;4.60;99.90;;;;;;5031231;28;20041;-83
2023/01/27 04:31:41;;;;;;;18.95;4.93;;;4.50;99.90;;;;;;5045721;28;20048;-83
2023/01/27 04:34:09;;;;;;;14.63;4.10;;;4.60;99.90;;;;;;5063646;28;20100;-87
2023/01/27 04:36:34;;;;;;;21.13;5.32;;;4.60;99.90;;;;;;5065958;28;20398;-83
2023/01/27 04:39:00;;;;;;;14.02;4.72;;;4.50;99.90;;;;;;5060824;28;20076;-85
2023/01/27 04:41:26;;;;;;;15.23;5.20;;;4.50;99.90;;;;;;5061413;28;20107;-84
2023/01/27 04:43:52;;;;;;;14.83;4.77;;;4.50;99.90;;;;;;5042477;28;20049;-87
2023/01/27 04:46:18;;;;;;;14.20;5.47;;;4.60;99.90;;;;;;5078550;28;20291;-85
2023/01/27 04:48:44;;;;;;;17.67;5.25;;;4.60;99.90;;;;;;5066619;28;20045;-84
2023/01/27 04:51:09;;;;;;;13.13;4.95;;;4.50;99.90;;;;;;5061041;28;20041;-81
2023/01/27 04:53:35;;;;;;;16.00;5.53;;;4.50;99.90;;;;;;5059455;28;20049;-81
2023/01/27 04:56:29;;;;;;;21.80;6.13;;;4.50;99.90;;;;;;5058428;28;20041;-84
2023/01/27 04:58:58;;;;;;;14.07;5.35;;;4.50;99.90;;;;;;5057901;28;20406;-82
2023/01/27 05:01:24;;;;;;;15.30;7.35;;;4.50;99.90;;;;;;5061985;28;20053;-83
2023/01/27 05:03:50;;;;;;;13.10;6.00;;;4.50;99.90;;;;;;5041720;28;20037;-83
2023/01/27 05:06:16;;;;;;;14.88;5.10;;;4.50;99.90;;;;;;5061782;28;20120;-83
2023/01/27 05:08:42;;;;;;;15.20;5.50;;;4.50;99.90;;;;;;5062995;28;20389;-78
2023/01/27 05:11:08;;;;;;;11.63;4.30;;;4.40;99.90;;;;;;5062770;28;20041;-85
2023/01/27 05:13:34;;;;;;;13.32;4.50;;;4.40;99.90;;;;;;5060203;28;20060;-87
2023/01/27 05:16:18;;;;;;;14.85;4.82;;;4.40;99.90;;;;;;5048019;28;20045;-85
2023/01/27 05:18:46;;;;;;;15.52;5.90;;;4.30;99.90;;;;;;5096851;28;20554;-83
2023/01/27 05:21:15;;;;;;;13.10;4.90;;;4.30;99.90;;;;;;5046157;28;20600;-83
2023/01/27 05:23:41;;;;;;;12.45;3.92;;;4.20;99.90;;;;;;5063950;28;20105;-84
2023/01/27 05:26:13;;;;;;;9.60;3.33;;;4.30;99.90;;;;;;5064645;28;20053;-79
2023/01/27 05:28:41;;;;;;;12.20;3.72;;;4.30;99.90;;;;;;5062006;28;20045;-84
2023/01/27 05:31:11;;;;;;;10.90;3.63;;;4.20;99.90;;;;;;5062203;28;20041;-84
2023/01/27 05:33:37;;;;;;;10.48;3.05;;;4.20;99.90;;;;;;5093840;28;20102;-85
2023/01/27 05:36:05;;;;;;;8.52;2.53;;;4.20;99.90;;;;;;5063280;28;20132;-85
2023/01/27 05:38:31;;;;;;;10.32;2.88;;;4.20;99.90;;;;;;5047563;28;20048;-83
2023/01/27 05:41:00;;;;;;;9.23;2.70;;;4.20;99.90;;;;;;5068309;28;20485;-79
2023/01/27 05:43:27;;;;;;;13.35;2.35;;;4.20;99.90;;;;;;5108932;28;20056;-84
2023/01/27 05:45:59;;;;;;;14.35;2.90;;;4.20;99.90;;;;;;5076298;28;20032;-84
2023/01/27 05:48:25;;;;;;;12.77;3.25;;;4.20;99.90;;;;;;5075918;28;20474;-82
2023/01/27 05:50:56;;;;;;;10.63;2.78;;;4.20;99.90;;;;;;5108366;28;20041;-84
2023/01/27 05:53:22;;;;;;;14.98;2.65;;;4.10;99.90;;;;;;5073399;28;20048;-81
2023/01/27 05:55:49;;;;;;;8.63;3.08;;;4.20;99.90;;;;;;5099292;28;20401;-83
2023/01/27 05:58:15;;;;;;;14.32;3.45;;;4.20;99.90;;;;;;5029870;28;20102;-82
2023/01/27 06:00:40;;;;;;;13.05;4.40;;;4.20;99.90;;;;;;5062581;28;20033;-81
2023/01/27 06:03:06;;;;;;;12.40;3.58;;;4.10;99.90;;;;;;5062769;28;20367;-82
2023/01/27 06:05:32;;;;;;;11.25;3.13;;;4.10;99.90;;;;;;5068368;28;20045;-81
2023/01/27 06:07:57;;;;;;;12.80;2.90;;;4.10;99.90;;;;;;5071841;28;20037;-81
2023/01/27 06:10:23;;;;;;;17.20;3.47;;;4.10;99.90;;;;;;5070380;28;20045;-82
2023/01/27 06:12:49;;;;;;;12.75;3.30;;;4.10;99.90;;;;;;5076008;28;20063;-81
2023/01/27 06:15:14;;;;;;;13.20;3.53;;;4.10;99.90;;;;;;5056191;28;20064;-81
2023/01/27 06:17:40;;;;;;;10.38;3.20;;;4.10;99.90;;;;;;5062842;28;20048;-81
2023/01/27 06:20:07;;;;;;;11.45;3.20;;;4.10;99.90;;;;;;5058067;28;20408;-79
2023/01/27 06:22:32;;;;;;;11.05;3.25;;;4.10;99.90;;;;;;5057205;28;20497;-80
2023/01/27 06:24:58;;;;;;;11.07;3.17;;;4.10;99.90;;;;;;5060926;28;20048;-81
2023/01/27 06:27:24;;;;;;;13.15;3.42;;;4.10;99.90;;;;;;5073382;28;20060;-81
2023/01/27 06:29:49;;;;;;;13.38;4.18;;;4.20;99.90;;;;;;5058891;28;20080;-81
2023/01/27 06:32:15;;;;;;;9.27;3.60;;;4.10;99.90;;;;;;5039579;28;20069;-84
2023/01/27 06:34:41;;;;;;;14.38;3.67;;;4.10;99.90;;;;;;5039867;28;20143;-81
2023/01/27 06:37:07;;;;;;;8.90;2.90;;;4.00;99.90;;;;;;5056567;28;20052;-81
2023/01/27 06:39:32;;;;;;;11.02;2.88;;;4.00;99.90;;;;;;5057363;28;20041;-82
2023/01/27 06:41:58;;;;;;;10.35;2.75;;;4.10;99.90;;;;;;5042091;28;20037;-82
2023/01/27 06:44:23;;;;;;;12.35;3.42;;;4.00;99.90;;;;;;5058093;28;20437;-83
2023/01/27 06:46:50;;;;;;;10.80;3.00;;;4.00;99.90;;;;;;5039735;28;20048;-81
2023/01/27 06:49:15;;;;;;;12.88;3.65;;;4.10;99.90;;;;;;5058282;28;20041;-83
2023/01/27 06:51:41;;;;;;;16.23;4.10;;;4.00;99.90;;;;;;5091592;28;20049;-81
2023/01/27 06:54:07;;;;;;;15.95;3.38;;;3.90;99.90;;;;;;5038116;28;20107;-80
2023/01/27 06:56:32;;;;;;;12.40;3.28;;;3.80;99.90;;;;;;5056726;28;20052;-79
2023/01/27 06:58:58;;;;;;;14.57;4.47;;;3.70;99.90;;;;;;5058266;28;20044;-81
2023/01/27 07:01:24;;;;;;;14.15;4.45;;;3.70;99.90;;;;;;5055427;28;20044;-81
2023/01/27 07:03:49;;;;;;;14.25;3.85;;;3.60;99.90;;;;;;5056157;28;20049;-84
2023/01/27 07:06:17;;;;;;;13.45;4.57;;;3.60;99.90;;;;;;5056775;28;20136;-83
2023/01/27 07:08:45;;;;;;;13.75;3.58;;;3.70;99.90;;;;;;5058369;28;20053;-84
2023/01/27 07:11:11;;;;;;;15.60;4.00;;;3.70;99.90;;;;;;5055546;28;20060;-84
2023/01/27 07:13:37;;;;;;;16.63;3.65;;;3.70;99.90;;;;;;5057882;28;20041;-82
2023/01/27 07:16:03;;;;;;;14.68;3.72;;;3.70;99.90;;;;;;5058354;28;20041;-81
2023/01/27 07:18:29;;;;;;;16.05;3.72;;;3.70;99.90;;;;;;5059257;28;20041;-84
2023/01/27 07:20:55;;;;;;;15.95;4.43;;;3.60;99.90;;;;;;5055846;28;20052;-85
2023/01/27 07:23:21;;;;;;;20.33;5.18;;;3.60;99.90;;;;;;5056947;28;20041;-82
2023/01/27 07:25:46;;;;;;;16.60;3.55;;;3.60;99.90;;;;;;5057339;28;20073;-84
2023/01/27 07:28:12;;;;;;;14.45;2.88;;;3.70;99.90;;;;;;5059166;28;20049;-82
2023/01/27 07:30:38;;;;;;;16.27;3.67;;;3.70;99.90;;;;;;5058860;28;20113;-83
2023/01/27 07:33:09;;;;;;;12.40;3.28;;;3.80;99.90;;;;;;5060758;28;20045;-81
2023/01/27 07:35:37;;;;;;;19.20;3.85;;;3.80;99.90;;;;;;5056695;28;20056;-84
2023/01/27 07:38:04;;;;;;;12.93;3.13;;;3.80;99.90;;;;;;5058537;28;20045;-82
2023/01/27 07:40:30;;;;;;;15.40;3.80;;;3.80;99.90;;;;;;5059390;28;20045;-83
2023/01/27 07:43:00;;;;;;;12.55;3.00;;;3.60;99.90;;;;;;5065073;28;20114;-82
2023/01/27 07:45:26;;;;;;;14.48;4.10;;;3.70;99.90;;;;;;5103657;28;20051;-83
2023/01/27 07:47:52;;;;;;;13.60;3.37;;;3.60;99.90;;;;;;5066527;28;20045;-80
2023/01/27 07:50:18;;;;;;;10.77;3.40;;;3.50;99.90;;;;;;5063312;28;20790;-82
2023/01/27 07:52:43;;;;;;;19.88;5.13;;;3.60;99.90;;;;;;5064617;28;20049;-83
2023/01/27 07:55:09;;;;;;;14.82;3.95;;;3.50;99.90;;;;;;5060757;28;20084;-83
2023/01/27 07:57:35;;;;;;;11.68;3.58;;;3.50;99.90;;;;;;5062685;28;20072;-82
2023/01/27 08:00:01;;;;;;;16.70;4.00;;;3.30;99.90;;;;;;5060024;28;20052;-81
2023/01/27 08:02:27;;;;;;;16.80;4.18;;;3.40;99.90;;;;;;5062416;28;20040;-82
2023/01/27 08:04:53;;;;;;;13.40;4.32;;;3.40;99.90;;;;;;5060881;28;20347;-82
2023/01/27 08:07:19;;;;;;;16.45;4.90;;;3.40;99.90;;;;;;5056453;28;20052;-82
2023/01/27 08:09:44;;;;;;;17.98;5.03;;;3.30;99.90;;;;;;5038475;28;20508;-80
2023/01/27 08:12:10;;;;;;;14.73;4.75;;;3.40;99.90;;;;;;5038032;28;20041;-85
2023/01/27 08:14:36;;;;;;;23.38;7.20;;;3.40;99.90;;;;;;5038992;28;20051;-84
2023/01/27 08:17:02;;;;;;;16.05;4.60;;;3.40;99.90;;;;;;5057859;28;20091;-83
2023/01/27 08:19:27;;;;;;;23.92;6.47;;;3.40;99.90;;;;;;5056969;28;20073;-84
2023/01/27 08:21:53;;;;;;;16.17;4.85;;;3.40;99.90;;;;;;5042070;28;20057;-83
2023/01/27 08:24:19;;;;;;;18.23;4.80;;;3.50;99.90;;;;;;5056320;28;20053;-83
2023/01/27 08:26:44;;;;;;;23.00;5.93;;;3.50;99.90;;;;;;5055974;28;20049;-85
2023/01/27 08:29:10;;;;;;;16.80;4.13;;;3.60;99.90;;;;;;5056989;28;20041;-86
2023/01/27 08:31:36;;;;;;;37.75;6.53;;;3.60;99.90;;;;;;5054200;28;20049;-84
2023/01/27 08:34:01;;;;;;;14.23;4.47;;;3.60;99.90;;;;;;5054949;28;20436;-84
2023/01/27 08:36:27;;;;;;;16.58;4.60;;;3.70;99.90;;;;;;5055300;28;20052;-84
2023/01/27 08:38:54;;;;;;;12.40;4.35;;;3.80;99.90;;;;;;5089827;28;20051;-86
2023/01/27 08:41:23;;;;;;;11.82;3.90;;;3.90;99.90;;;;;;5056141;28;20436;-83
2023/01/27 08:43:49;;;;;;;15.77;4.57;;;4.00;99.90;;;;;;5056843;28;20390;-81
2023/01/27 08:46:15;;;;;;;13.10;4.05;;;4.10;99.90;;;;;;5056505;28;20045;-85
2023/01/27 08:48:42;;;;;;;21.98;4.95;;;4.20;99.90;;;;;;5091749;28;20052;-83
2023/01/27 08:51:10;;;;;;;21.63;6.28;;;4.30;99.90;;;;;;5057828;28;20512;-83
2023/01/27 08:53:36;;;;;;;21.45;5.35;;;4.10;99.90;;;;;;5090572;28;20095;-86
2023/01/27 08:56:07;;;;;;;19.65;4.32;;;4.20;99.90;;;;;;5061356;28;20049;-84
2023/01/27 08:58:34;;;;;;;14.80;5.15;;;4.20;99.90;;;;;;5063280;28;20107;-83
2023/01/27 09:01:02;;;;;;;17.85;4.90;;;4.20;99.90;;;;;;5063776;28;20049;-84
2023/01/27 09:03:28;;;;;;;;;;;4.20;99.90;;;;;;5096302;28;20049;-84
2023/01/27 09:05:54;;;;;;;21.38;5.72;;;4.20;99.90;;;;;;5060815;28;19925;-84
2023/01/27 09:08:19;;;;;;;17.95;5.82;;;4.20;99.90;;;;;;5063394;28;20068;-82
2023/01/27 09:10:45;;;;;;;21.50;5.70;;;4.30;99.90;;;;;;5059219;28;20079;-81
2023/01/27 09:13:11;;;;;;;21.77;5.90;;;4.40;99.90;;;;;;5057100;28;20464;-80
2023/01/27 09:15:37;;;;;;;21.52;5.97;;;4.40;99.90;;;;;;5024950;28;20049;-82
2023/01/27 09:18:04;;;;;;;28.05;6.00;;;4.30;99.90;;;;;;5059001;28;20032;-85
2023/01/27 09:20:30;;;;;;;17.58;5.40;;;4.40;99.90;;;;;;5057401;28;20105;-84
2023/01/27 09:22:56;;;;;;;19.40;5.60;;;4.30;99.90;;;;;;5057209;28;20045;-85
2023/01/27 09:25:22;;;;;;;24.95;6.50;;;4.40;99.90;;;;;;5041704;28;20041;-81
2023/01/27 09:27:48;;;;;;;17.38;5.93;;;4.30;99.90;;;;;;5057821;28;20397;-84
2023/01/27 09:30:15;;;;;;;20.33;5.55;;;4.40;99.90;;;;;;5040902;28;20052;-82
2023/01/27 09:32:41;;;;;;;19.60;7.28;;;4.50;99.90;;;;;;5042135;28;20044;-82
2023/01/27 09:35:07;;;;;;;21.90;6.20;;;4.40;99.90;;;;;;5058473;28;20068;-83
2023/01/27 09:37:39;;;;;;;16.67;5.23;;;4.50;99.90;;;;;;5057261;28;20049;-82
2023/01/27 09:40:15;;;;;;;25.40;6.38;;;4.60;99.90;;;;;;5062383;28;20041;-82
2023/01/27 09:42:54;;;;;;;25.95;6.53;;;4.50;99.90;;;;;;5062392;28;20045;-84
2023/01/27 09:45:30;;;;;;;20.20;4.93;;;4.50;99.90;;;;;;5061683;28;20048;-82
2023/01/27 09:48:19;;;;;;;21.30;5.35;;;4.50;99.90;;;;;;5058995;28;20037;-84
2023/01/27 09:50:59;;;;;;;16.35;5.30;;;4.60;99.90;;;;;;5061207;28;20385;-83
2023/01/27 09:54:01;;;;;;;17.52;6.07;;;4.70;99.90;;;;;;5059359;28;20131;-84
2023/01/27 09:56:49;;;;;;;16.45;5.75;;;4.50;99.90;;;;;;5041601;28;20053;-82
2023/01/27 09:59:33;;;;;;;17.08;5.85;;;4.60;99.90;;;;;;5057549;28;20430;-82
2023/01/27 10:02:29;;;;;;;23.70;7.93;;;4.60;99.90;;;;;;5058375;28;20055;-83
2023/01/27 10:05:32;;;;;;;18.47;4.73;;;4.60;99.90;;;;;;5058620;28;20091;-85
2023/01/27 10:08:07;;;;;;;23.48;5.50;;;4.60;99.90;;;;;;5058828;28;20307;-82
2023/01/27 10:10:45;;;;;;;15.88;5.00;;;4.60;99.90;;;;;;5059064;28;20393;-82
2023/01/27 10:13:41;;;;;;;20.23;5.47;;;4.60;99.90;;;;;;5057513;28;20388;-82
2023/01/27 10:16:16;;;;;;;;;;;4.60;99.90;;;;;;5059547;28;20052;-83
2023/01/27 10:18:50;;;;;;;15.75;4.80;;;4.70;99.90;;;;;;5057863;28;19920;-84
2023/01/27 10:21:39;;;;;;;25.75;6.30;;;4.70;99.90;;;;;;5055483;28;20048;-84
2023/01/27 10:24:40;;;;;;;18.67;4.70;;;4.80;99.90;;;;;;5044165;28;20047;-83
2023/01/27 10:27:19;;;;;;;14.30;3.47;;;4.70;99.90;;;;;;5055977;28;20049;-84
2023/01/27 10:30:05;;;;;;;18.48;4.55;;;4.70;99.90;;;;;;5057644;28;20049;-83
2023/01/27 10:32:44;;;;;;;20.30;5.32;;;4.80;99.90;;;;;;5089924;28;20049;-83
2023/01/27 10:35:30;;;;;;;17.10;5.22;;;4.80;99.90;;;;;;5057254;28;20052;-84
2023/01/27 10:38:20;;;;;;;22.55;6.10;;;4.80;99.90;;;;;;5088495;28;20049;-82
2023/01/27 10:41:03;;;;;;;21.08;5.70;;;4.80;99.90;;;;;;5055948;28;20040;-82
2023/01/27 10:43:44;;;;;;;16.48;5.20;;;4.60;99.90;;;;;;5055060;28;20131;-84
2023/01/27 10:46:28;;;;;;;19.33;5.13;;;4.70;99.90;;;;;;5040528;28;20045;-83
2023/01/27 10:49:06;;;;;;;21.20;4.82;;;4.60;99.90;;;;;;5054629;28;20049;-84
2023/01/27 10:51:40;;;;;;;14.85;5.80;;;4.60;99.90;;;;;;5056126;28;20052;-81
2023/01/27 10:54:34;;;;;;;12.43;3.35;;;4.60;99.90;;;;;;5058489;28;20056;-87
2023/01/27 10:57:35;;;;;;;14.70;4.05;;;4.50;99.90;;;;;;5058481;28;20045;-80
2023/01/27 11:00:34;;;;;;;13.60;3.70;;;4.60;99.90;;;;;;5017195;28;20061;-82
2023/01/27 11:03:09;;;;;;;15.52;4.00;;;4.60;99.90;;;;;;5056317;28;20049;-83
2023/01/27 11:05:46;;;;;;;12.02;3.47;;;4.60;99.90;;;;;;5058141;28;20071;-85
2023/01/27 11:08:16;;;;;;;;;;;4.70;99.90;;;;;;5058067;28;20087;-83
2023/01/27 11:13:32;;;;;;;15.07;3.78;;;4.70;99.90;;;;;;5093194;28;20401;-84
2023/01/27 11:15:59;;;;;;;15.57;3.92;;;4.70;99.90;;;;;;5039784;28;20045;-84
2023/01/27 11:18:27;;;;;;;13.00;3.63;;;4.60;99.90;;;;;;5056768;28;20048;-83
2023/01/27 11:20:58;;;;;;;17.50;4.65;;;4.70;99.90;;;;;;5037865;28;20049;-85
2023/01/27 11:23:48;;;;;;;12.95;3.63;;;4.70;99.90;;;;;;5054431;28;20405;-81
2023/01/27 11:26:43;;;;;;;14.93;3.60;;;4.80;99.90;;;;;;5038817;28;20131;-85
2023/01/27 11:29:18;;;;;;;15.70;4.30;;;4.80;99.90;;;;;;5038168;28;20041;-85
2023/01/27 11:31:53;;;;;;;16.55;4.07;;;4.90;99.90;;;;;;5055703;28;20425;-85
2023/01/27 11:34:37;;;;;;;16.15;3.65;;;4.90;99.90;;;;;;5054940;28;20052;-83
2023/01/27 11:37:20;;;;;;;11.05;3.92;;;4.90;99.90;;;;;;5055407;28;20052;-83
2023/01/27 11:39:47;;;;;;;15.05;3.63;;;4.70;99.90;;;;;;5057103;28;20045;-85
2023/01/27 11:42:14;;;;;;;13.95;3.67;;;4.80;99.90;;;;;;5056608;28;20053;-80
2023/01/27 11:44:42;;;;;;;13.20;3.90;;;4.70;99.90;;;;;;5058655;28;20108;-86
2023/01/27 11:47:19;;;;;;;14.00;3.90;;;4.80;99.90;;;;;;5040403;28;20528;-83
2023/01/27 11:49:49;;;;;;;14.60;3.95;;;4.90;99.90;;;;;;5057654;28;20045;-84
2023/01/27 11:52:18;;;;;;;12.20;3.92;;;4.70;99.90;;;;;;5054925;28;20075;-87
2023/01/27 11:55:02;;;;;;;16.20;6.07;;;4.80;99.90;;;;;;5056146;28;20087;-82
2023/01/27 11:57:28;;;;;;;14.00;4.28;;;4.70;99.90;;;;;;5055898;28;20106;-83
2023/01/27 12:00:06;;;;;;;14.98;4.43;;;4.80;99.90;;;;;;5053905;28;20428;-84
2023/01/27 12:02:40;;;;;;;14.18;4.15;;;4.90;99.90;;;;;;5054177;28;20041;-79
2023/01/27 12:05:26;;;;;;;14.88;4.00;;;4.90;99.90;;;;;;5052607;28;20501;-81
2023/01/27 12:07:55;;;;;;;13.20;4.25;;;5.10;99.90;;;;;;5054075;28;20357;-87
2023/01/27 12:10:25;;;;;;;14.27;3.92;;;5.10;99.90;;;;;;5036464;28;20156;-82
2023/01/27 12:12:52;;;;;;;15.55;4.30;;;5.10;99.90;;;;;;5086871;28;20060;-84
2023/01/27 12:15:18;;;;;;;11.10;3.55;;;5.10;99.90;;;;;;5052004;28;20511;-83
2023/01/27 12:17:54;;;;;;;14.18;4.45;;;5.10;99.90;;;;;;5054022;28;20132;-86
2023/01/27 12:20:20;;;;;;;14.27;3.75;;;5.20;99.90;;;;;;5055400;28;20059;-85
2023/01/27 12:22:48;;;;;;;16.08;4.53;;;5.00;99.90;;;;;;5053151;28;20049;-83
2023/01/27 12:25:28;;;;;;;17.92;4.22;;;5.10;99.90;;;;;;5037560;28;20382;-80
2023/01/27 12:28:01;;;;;;;14.05;4.28;;;5.20;99.90;;;;;;5056287;28;20096;-84
2023/01/27 12:30:30;;;;;;;14.55;4.32;;;5.40;99.90;;;;;;5055542;28;20052;-85
2023/01/27 12:32:58;;;;;;;13.35;4.03;;;5.20;99.90;;;;;;5060339;28;20404;-81
2023/01/27 12:35:26;;;;;;;;;;;5.20;99.90;;;;;;5058359;28;20511;-85
2023/01/27 12:38:02;;;;;;;16.33;3.40;;;5.20;99.90;;;;;;5057229;28;19950;-80
2023/01/27 12:40:28;;;;;;;13.05;3.80;;;5.30;99.90;;;;;;5042455;28;20049;-84
2023/01/27 12:43:19;;;;;;;12.90;3.47;;;5.30;99.90;;;;;;5041179;28;20056;-87
2023/01/27 12:46:02;;;;;;;8.57;2.50;;;5.30;99.90;;;;;;5056997;28;20493;-82
2023/01/27 12:48:32;;;;;;;9.15;2.60;;;5.30;99.90;;;;;;5056433;28;20424;-77
2023/01/27 12:51:19;;;;;;;11.25;3.90;;;5.20;99.90;;;;;;5058005;28;20412;-86
2023/01/27 12:53:46;;;;;;;;;;;5.30;99.90;;;;;;5041756;28;20135;-85
2023/01/27 12:56:16;;;;;;;10.38;3.13;;;5.30;99.90;;;;;;5089936;28;19927;-82
2023/01/27 12:58:51;;;;;;;11.75;2.92;;;5.30;99.90;;;;;;5056992;28;20053;-83
2023/01/27 13:01:22;;;;;;;9.95;2.58;;;5.10;99.90;;;;;;5057438;28;20098;-81
2023/01/27 13:04:15;;;;;;;10.50;3.05;;;5.20;99.90;;;;;;5058579;28;20053;-86
2023/01/27 13:06:56;;;;;;;9.32;2.72;;;5.00;99.90;;;;;;5057096;28;20045;-85
2023/01/27 13:09:33;;;;;;;10.77;3.50;;;5.10;99.90;;;;;;5058135;28;20365;-86
2023/01/27 13:12:14;;;;;;;;;;;5.10;99.90;;;;;;5056473;28;20106;-84
2023/01/27 13:14:41;;;;;;;11.65;3.63;;;5.10;99.90;;;;;;5058594;28;19990;-83
2023/01/27 13:17:37;;;;;;;11.15;3.53;;;5.10;99.90;;;;;;5055150;28;20045;-85
2023/01/27 13:20:07;;;;;;;10.13;4.40;;;5.20;99.90;;;;;;5056221;28;20048;-84
2023/01/27 13:22:42;;;;;;;11.02;3.53;;;4.90;99.90;;;;;;5056480;28;20047;-84
2023/01/27 13:25:17;;;;;;;9.68;2.80;;;5.00;99.90;;;;;;5073432;28;20053;-86
2023/01/27 13:27:44;;;;;;;13.68;3.08;;;5.10;99.90;;;;;;5057081;28;20053;-83
2023/01/27 13:30:27;;;;;;;14.27;3.72;;;5.00;99.90;;;;;;5055532;28;20397;-84
2023/01/27 13:32:58;;;;;;;9.45;3.33;;;5.00;99.90;;;;;;5056663;28;20041;-80